Terminal Aerodrome Forecast
Issued by NWS

Home | Current Version | Previous Version | Graphics & Text | Print | Product List | Glossary On
Versions: 1 2 3 4 5 6 7 8 9 10 11 12 13 14 15 16 17 18 19 20 21 22 23 24 25 26 27 28 29 30 31 32 33 34 35 36 37 38 39 40 41 42 43 44 45 46 47 48
939
FTUS43 KPAH 101720
TAFOWB
TAF
KOWB 101720Z 1018/1118 29008KT P6SM SCT025 OVC130
      TEMPO 1018/1021 BKN025
     FM110100 VRB04KT P6SM SCT030 OVC060
      TEMPO 1101/1105 5SM -SN BR OVC030
     FM110500 VRB03KT P6SM OVC025
     FM111600 01006KT P6SM SCT030=

USA.gov is the U.S. government's official web portal to all federal, state and local government web resources and services.